WIOO/PNK METAR and TAF weather

Enter ICAO airport designator
Station Type Date Time Source
WIOO METAR 2020/05/29 06:30 UTC NOAA

WIOO 290630Z 15004KT 9999 BKN012 34/24 Q1009 NOSIG


Station Type Date Time Source
WIOO Decoded METAR 2020/05/29 06:30 UTC NOAA

Pontianak / Supadio, Indonesia (WIOO) 00-09S 109-24E 3M
May 29, 2020 - 02:30 AM EDT / 2020.05.29 0630 UTC
Wind: from the SSE (150 degrees) at 5 MPH (4 KT):0
Visibility: greater than 7 mile(s):0
Sky conditions: mostly cloudy
Temperature: 93 F (34 C)
Heat index: 104.5 F (40.3 C):1
Dew Point: 75 F (24 C)
Relative Humidity: 56%
Pressure (altimeter): 29.80 in. Hg (1009 hPa)
ob: WIOO 290630Z 15004KT 9999 BKN012 34/24 Q1009 NOSIG
cycle: 6

Station Type Date Time Source
WIOO TAF 2014/03/26 00:51 UTC NOAA

TAF TAF WIOO 252300Z 2600/2624 10002KT 7000 SCT011
BECMG 2601/2603 08005KT 9999
TEMPO 2607/2610 15010KT 3000

Example: see airport list